createdAt,value
2018-08-20T00:01:27.825Z,57.87
2018-08-20T00:04:01.608Z,58.36
2018-08-20T00:06:49.078Z,58.83
2018-08-20T00:09:20.733Z,58.98
2018-08-20T00:11:51.245Z,59.23
2018-08-20T00:14:22.744Z,59.34
2018-08-20T00:16:53.149Z,59.99
2018-08-20T00:19:23.642Z,59.32
2018-08-20T00:21:54.121Z,58.94
2018-08-20T00:24:24.600Z,58.96
2018-08-20T00:26:55.884Z,59.02
2018-08-20T00:29:26.481Z,58.11
2018-08-20T00:31:56.830Z,58.64
2018-08-20T00:34:27.163Z,58.52
2018-08-20T00:36:57.547Z,58.28
2018-08-20T00:39:27.909Z,57.75
2018-08-20T00:41:58.426Z,57.86
2018-08-20T00:44:28.987Z,57.64
2018-08-20T00:46:59.593Z,57.91
2018-08-20T00:49:29.919Z,58.44
2018-08-20T00:52:00.272Z,57.89
2018-08-20T00:54:30.667Z,58.25
2018-08-20T00:57:01.168Z,57.95
2018-08-20T00:59:31.696Z,58.01
2018-08-20T01:02:02.292Z,59.01
2018-08-20T01:04:32.521Z,58.17
2018-08-20T01:07:03.112Z,58.74
2018-08-20T01:09:33.741Z,58.40
2018-08-20T01:12:04.343Z,58.62
2018-08-20T01:14:34.685Z,58.58
2018-08-20T01:17:05.300Z,58.73
2018-08-20T01:19:36.715Z,58.59
2018-08-20T01:22:07.169Z,59.08
2018-08-20T01:24:37.618Z,58.67
2018-08-20T01:27:08.336Z,59.19
2018-08-20T01:29:38.764Z,59.39
2018-08-20T01:32:09.267Z,58.17
2018-08-20T01:34:39.539Z,59.14
2018-08-20T01:37:10.091Z,59.23
2018-08-20T01:39:40.450Z,58.66
2018-08-20T01:42:10.876Z,58.01
2018-08-20T01:44:42.081Z,57.62
2018-08-20T01:47:12.812Z,58.37
2018-08-20T01:49:43.142Z,58.07
2018-08-20T01:52:13.722Z,57.87
2018-08-20T01:54:44.199Z,58.11
2018-08-20T01:57:14.559Z,57.92
2018-08-20T01:59:44.954Z,58.54
2018-08-20T02:02:15.468Z,58.27
2018-08-20T02:04:45.827Z,58.53
2018-08-20T02:07:16.483Z,58.29
2018-08-20T02:09:47.160Z,57.49
2018-08-20T02:12:17.859Z,58.47
2018-08-20T02:14:48.367Z,58.28
2018-08-20T02:17:18.920Z,58.04
2018-08-20T02:19:49.636Z,58.11
2018-08-20T02:22:20.267Z,58.02
2018-08-20T02:24:50.844Z,58.02
2018-08-20T02:27:21.135Z,58.89
2018-08-20T02:29:51.356Z,58.38
2018-08-20T02:32:22.659Z,58.12
2018-08-20T02:34:53.106Z,57.81
2018-08-20T02:37:24.915Z,57.74
2018-08-20T02:39:55.424Z,57.60
2018-08-20T02:42:25.899Z,57.60
2018-08-20T02:44:56.517Z,57.46
2018-08-20T02:47:26.798Z,57.44
2018-08-20T02:49:58.064Z,57.84
2018-08-20T02:52:28.656Z,58.03
2018-08-20T02:54:59.245Z,58.65
2018-08-20T02:57:29.667Z,59.08
2018-08-20T03:00:00.109Z,58.71
2018-08-20T03:02:30.625Z,58.25
2018-08-20T03:05:01.085Z,58.12
2018-08-20T03:07:31.642Z,58.07
2018-08-20T03:10:02.256Z,58.58
2018-08-20T03:12:32.388Z,58.80
2018-08-20T03:15:02.900Z,58.40
2018-08-20T03:17:36.869Z,58.06
2018-08-20T03:20:12.800Z,57.96
2018-08-20T03:22:43.233Z,58.44
2018-08-20T03:25:13.696Z,57.69
2018-08-20T03:27:44.302Z,58.38
2018-08-20T03:30:14.894Z,58.10
2018-08-20T03:32:45.895Z,59.18
2018-08-20T03:35:16.455Z,58.29
2018-08-20T03:37:47.035Z,58.67
2018-08-20T03:40:18.362Z,58.63
2018-08-20T03:42:48.751Z,59.47
2018-08-20T03:45:19.380Z,59.34
2018-08-20T03:47:49.899Z,60.48
2018-08-20T03:50:20.492Z,60.33
2018-08-20T03:52:51.224Z,59.53
2018-08-20T03:55:21.695Z,60.05
2018-08-20T03:57:53.043Z,60.69
2018-08-20T04:00:24.990Z,60.12
2018-08-20T04:02:55.648Z,60.13
2018-08-20T04:05:26.060Z,61.07
2018-08-20T04:07:56.385Z,61.33
2018-08-20T04:10:26.796Z,61.39
2018-08-20T04:12:57.304Z,61.19
2018-08-20T04:15:27.654Z,61.73
2018-08-20T04:17:58.283Z,62.35
2018-08-20T04:20:28.495Z,62.05
2018-08-20T04:22:58.890Z,63.15
2018-08-20T04:25:29.335Z,63.21
2018-08-20T04:27:59.973Z,62.95
2018-08-20T04:30:30.480Z,62.62
2018-08-20T04:33:00.847Z,63.01
2018-08-20T04:35:31.314Z,63.36
2018-08-20T04:38:01.764Z,62.52
2018-08-20T04:40:35.058Z,63.84
2018-08-20T04:43:05.490Z,63.70
2018-08-20T04:45:35.848Z,63.19
2018-08-20T04:48:06.491Z,63.60
2018-08-20T04:50:36.839Z,63.08
2018-08-20T04:53:07.652Z,63.13
2018-08-20T04:55:38.139Z,64.01
2018-08-20T04:58:08.685Z,63.52
2018-08-20T05:00:39.120Z,64.48
2018-08-20T05:03:13.778Z,64.39
2018-08-20T05:05:44.202Z,63.91
2018-08-20T05:08:14.699Z,64.16
2018-08-20T05:10:45.177Z,64.34
2018-08-20T05:13:15.555Z,64.84
2018-08-20T05:15:46.195Z,64.07
2018-08-20T05:18:16.529Z,63.56
2018-08-20T05:20:46.892Z,64.12
2018-08-20T05:23:17.380Z,63.68
2018-08-20T05:25:47.692Z,63.41
2018-08-20T05:28:18.243Z,63.18
2018-08-20T05:30:48.811Z,62.52
2018-08-20T05:33:19.308Z,63.83
2018-08-20T05:35:49.809Z,62.86
2018-08-20T05:38:20.471Z,62.87
2018-08-20T05:40:51.016Z,62.71
2018-08-20T05:43:21.341Z,62.81
2018-08-20T05:45:51.948Z,63.56
2018-08-20T05:48:22.506Z,63.68
2018-08-20T05:50:52.908Z,62.97
2018-08-20T05:53:23.411Z,63.45
2018-08-20T05:55:53.791Z,63.14
2018-08-20T05:58:24.248Z,62.84
2018-08-20T06:00:54.670Z,62.90
2018-08-20T06:03:25.166Z,62.60
2018-08-20T06:05:55.551Z,62.84
2018-08-20T06:08:26.073Z,62.88
2018-08-20T06:10:56.537Z,61.98
2018-08-20T06:13:26.959Z,62.26
2018-08-20T06:15:57.501Z,62.27
2018-08-20T06:18:28.085Z,62.20
2018-08-20T06:20:59.068Z,61.83
2018-08-20T06:23:29.471Z,62.13
2018-08-20T06:26:00.107Z,62.53
2018-08-20T06:28:30.752Z,62.53
2018-08-20T06:31:01.204Z,62.30
2018-08-20T06:33:31.890Z,61.96
2018-08-20T06:36:02.452Z,62.37
2018-08-20T06:38:32.957Z,61.68
2018-08-20T06:41:03.627Z,61.83
2018-08-20T06:43:33.896Z,62.15
2018-08-20T06:46:04.293Z,62.02
2018-08-20T06:48:34.723Z,61.42
2018-08-20T06:51:05.267Z,60.72
2018-08-20T06:53:35.763Z,60.95
2018-08-20T06:56:06.146Z,59.99
2018-08-20T06:58:36.487Z,60.39
2018-08-20T07:01:07.073Z,60.62
2018-08-20T07:03:37.540Z,60.69
2018-08-20T07:06:08.123Z,60.38
2018-08-20T07:08:38.757Z,59.43
2018-08-20T07:11:09.300Z,60.48
2018-08-20T07:13:39.722Z,59.93
2018-08-20T07:16:10.580Z,59.91
2018-08-20T07:18:41.360Z,58.97
2018-08-20T07:21:11.825Z,59.33
2018-08-20T07:23:42.208Z,59.93
2018-08-20T07:26:12.825Z,59.22
2018-08-20T07:28:43.507Z,59.76
2018-08-20T07:31:14.104Z,59.92
2018-08-20T07:33:44.733Z,59.94
2018-08-20T07:36:15.436Z,60.60
2018-08-20T07:38:46.089Z,60.50
2018-08-20T07:41:16.614Z,60.77
2018-08-20T07:43:47.163Z,59.55
2018-08-20T07:46:17.576Z,60.58
2018-08-20T07:48:48.112Z,60.79
2018-08-20T07:51:18.591Z,60.41
2018-08-20T07:53:49.376Z,60.27
2018-08-20T07:56:19.867Z,59.94
2018-08-20T07:58:50.361Z,60.54
2018-08-20T08:01:20.956Z,60.48
2018-08-20T08:03:51.321Z,59.40
2018-08-20T08:06:21.748Z,58.73
2018-08-20T08:08:52.344Z,59.51
2018-08-20T08:11:22.805Z,59.13
2018-08-20T08:13:53.152Z,58.70
2018-08-20T08:16:23.762Z,57.36
2018-08-20T08:18:54.208Z,57.65
2018-08-20T08:21:24.730Z,57.72
2018-08-20T08:23:55.069Z,56.70
2018-08-20T08:26:25.578Z,55.14
2018-08-20T08:28:56.128Z,56.25
2018-08-20T08:31:26.964Z,55.40
2018-08-20T08:33:57.728Z,54.95
2018-08-20T08:36:28.360Z,54.49
2018-08-20T08:38:58.999Z,54.75
2018-08-20T08:41:29.697Z,55.15
2018-08-20T08:44:00.277Z,55.20
2018-08-20T08:46:30.875Z,54.90
2018-08-20T08:49:01.536Z,55.04
2018-08-20T08:51:32.173Z,53.70
2018-08-20T08:54:02.822Z,54.82
2018-08-20T08:56:33.832Z,54.60
2018-08-20T08:59:04.385Z,54.97
2018-08-20T09:01:34.976Z,54.86
2018-08-20T09:04:05.652Z,54.68
2018-08-20T09:06:36.366Z,55.27
2018-08-20T09:09:08.488Z,54.28
2018-08-20T09:11:39.066Z,55.36
2018-08-20T09:14:16.614Z,55.23
2018-08-20T09:16:47.192Z,55.31
2018-08-20T09:19:17.755Z,54.88
2018-08-20T09:21:48.343Z,53.94
2018-08-20T09:24:18.858Z,55.27
2018-08-20T09:26:49.519Z,54.95
2018-08-20T09:29:20.093Z,54.50
2018-08-20T09:31:50.629Z,54.65
2018-08-20T09:34:21.016Z,55.47
2018-08-20T09:36:51.656Z,55.44
2018-08-20T09:39:22.046Z,55.01
2018-08-20T09:41:52.630Z,55.97
2018-08-20T09:44:23.105Z,55.40
2018-08-20T09:46:53.354Z,55.22
2018-08-20T09:49:23.755Z,55.50
2018-08-20T09:51:54.216Z,54.42
2018-08-20T09:54:25.296Z,54.93
2018-08-20T09:56:55.893Z,54.30
2018-08-20T09:59:26.481Z,55.33
2018-08-20T10:01:57.077Z,55.48
2018-08-20T10:04:27.525Z,55.80
2018-08-20T10:06:57.962Z,53.99
2018-08-20T10:09:28.195Z,54.68
2018-08-20T10:11:58.737Z,53.66
2018-08-20T10:14:29.264Z,53.25
2018-08-20T10:16:59.694Z,52.16
2018-08-20T10:19:30.418Z,52.21
2018-08-20T10:22:00.995Z,52.72
2018-08-20T10:24:31.410Z,52.11
2018-08-20T10:27:01.877Z,52.66
2018-08-20T10:29:32.228Z,52.39
2018-08-20T10:32:02.783Z,52.36
2018-08-20T10:34:33.110Z,52.11
2018-08-20T10:37:03.520Z,50.38
2018-08-20T10:39:33.880Z,50.93
2018-08-20T10:42:04.383Z,51.13
2018-08-20T10:44:39.565Z,50.52
2018-08-20T10:47:09.856Z,50.74
2018-08-20T10:49:40.400Z,51.35
2018-08-20T10:52:11.121Z,52.23
2018-08-20T10:54:41.709Z,51.92
2018-08-20T10:57:12.213Z,52.87
2018-08-20T10:59:42.835Z,53.93
2018-08-20T11:02:13.352Z,53.69
2018-08-20T11:04:43.952Z,53.80
2018-08-20T11:07:21.719Z,53.12
2018-08-20T11:09:52.133Z,53.61
2018-08-20T11:12:22.632Z,53.12
2018-08-20T11:14:53.199Z,52.83
2018-08-20T11:17:23.527Z,53.04
2018-08-20T11:19:53.819Z,52.48
2018-08-20T11:22:24.302Z,53.41
2018-08-20T11:24:54.794Z,53.06
2018-08-20T11:27:25.368Z,52.26
2018-08-20T11:29:55.967Z,52.71
2018-08-20T11:32:26.443Z,52.75
2018-08-20T11:34:56.823Z,52.88
2018-08-20T11:37:27.284Z,52.82
2018-08-20T11:39:57.583Z,53.20
2018-08-20T11:42:28.117Z,53.59
2018-08-20T11:44:58.498Z,53.53
2018-08-20T11:47:29.349Z,53.64
2018-08-20T11:50:02.077Z,53.09
2018-08-20T11:52:32.766Z,52.37
2018-08-20T11:55:03.351Z,52.78
2018-08-20T11:57:33.832Z,52.50
2018-08-20T12:00:04.329Z,53.05
2018-08-20T12:02:34.755Z,54.22
2018-08-20T12:05:05.591Z,53.73
2018-08-20T12:07:36.088Z,54.06
2018-08-20T12:10:07.932Z,53.48
2018-08-20T12:12:38.887Z,54.25
2018-08-20T12:15:11.913Z,54.93
2018-08-20T12:17:43.209Z,58.12
2018-08-20T12:20:13.714Z,59.76
2018-08-20T12:22:45.043Z,61.20
2018-08-20T12:25:16.148Z,62.15
2018-08-20T12:27:46.541Z,62.46
2018-08-20T12:30:17.083Z,62.08
2018-08-20T12:32:47.613Z,61.98
2018-08-20T12:35:18.096Z,62.47
2018-08-20T12:37:48.484Z,61.00
2018-08-20T12:40:19.039Z,60.58
2018-08-20T12:42:49.327Z,60.59
2018-08-20T12:45:19.708Z,60.43
2018-08-20T12:47:50.212Z,59.64
2018-08-20T12:50:20.579Z,59.64
2018-08-20T12:52:50.921Z,58.86
2018-08-20T12:55:21.316Z,59.50
2018-08-20T12:57:51.917Z,59.14
2018-08-20T13:00:22.450Z,60.60
2018-08-20T13:02:52.985Z,61.80
2018-08-20T13:05:23.479Z,61.71
2018-08-20T13:07:53.728Z,62.37
2018-08-20T13:10:24.128Z,62.09
2018-08-20T13:12:54.603Z,60.88
2018-08-20T13:15:25.202Z,61.45
2018-08-20T13:17:55.569Z,61.61
2018-08-20T13:20:26.093Z,60.28
2018-08-20T13:22:56.608Z,60.25
2018-08-20T13:25:27.134Z,59.81
2018-08-20T13:27:57.687Z,59.21
2018-08-20T13:30:28.225Z,59.68
2018-08-20T13:32:58.587Z,58.72
2018-08-20T13:35:29.052Z,58.22
2018-08-20T13:37:59.648Z,57.83
2018-08-20T13:40:30.241Z,59.29
2018-08-20T13:43:00.927Z,59.47
2018-08-20T13:45:31.508Z,60.04
2018-08-20T13:48:01.996Z,59.96
2018-08-20T13:50:32.364Z,58.21
2018-08-20T13:53:02.929Z,58.80
2018-08-20T13:55:33.320Z,57.48
2018-08-20T13:58:03.924Z,55.86
2018-08-20T14:00:34.521Z,56.47
2018-08-20T14:03:05.077Z,56.45
2018-08-20T14:05:35.467Z,56.20
2018-08-20T14:08:07.069Z,55.15
2018-08-20T14:10:37.623Z,55.02
2018-08-20T14:13:08.436Z,53.04
2018-08-20T14:15:38.987Z,52.38
2018-08-20T14:18:09.753Z,53.42
2018-08-20T14:20:43.027Z,52.62
2018-08-20T14:23:13.446Z,51.53
2018-08-20T14:25:43.809Z,51.08
2018-08-20T14:28:14.286Z,51.41
2018-08-20T14:30:44.788Z,50.99
2018-08-20T14:33:15.293Z,51.20
2018-08-20T14:35:45.654Z,51.29
2018-08-20T14:38:16.099Z,51.19
2018-08-20T14:40:46.480Z,52.44
2018-08-20T14:43:17.107Z,52.40
2018-08-20T14:45:52.556Z,51.44
2018-08-20T14:48:23.172Z,51.97
2018-08-20T14:50:53.666Z,52.26
2018-08-20T14:53:24.395Z,52.07
2018-08-20T14:55:54.952Z,52.39
2018-08-20T14:58:25.555Z,53.50
2018-08-20T15:00:55.905Z,52.57
2018-08-20T15:03:26.488Z,53.91
2018-08-20T15:05:56.969Z,53.19
2018-08-20T15:08:27.233Z,54.50
2018-08-20T15:10:57.731Z,53.85
2018-08-20T15:13:28.168Z,54.23
2018-08-20T15:15:58.672Z,54.02
2018-08-20T15:18:29.177Z,54.41
2018-08-20T15:20:59.644Z,55.56
2018-08-20T15:23:30.231Z,55.67
2018-08-20T15:26:00.732Z,54.59
2018-08-20T15:28:31.087Z,54.63
2018-08-20T15:31:01.549Z,54.18
2018-08-20T15:33:32.449Z,54.50
2018-08-20T15:36:02.872Z,54.15
2018-08-20T15:38:33.425Z,54.36
2018-08-20T15:41:04.049Z,55.14
2018-08-20T15:43:34.767Z,54.81
2018-08-20T15:46:05.324Z,54.81
2018-08-20T15:48:35.662Z,54.55
2018-08-20T15:51:08.609Z,54.60
2018-08-20T15:53:39.067Z,55.57
2018-08-20T15:56:09.579Z,55.86
2018-08-20T15:58:39.945Z,56.84
2018-08-20T16:01:10.423Z,56.53
2018-08-20T16:03:40.799Z,58.46
2018-08-20T16:06:11.174Z,58.76
2018-08-20T16:08:41.678Z,60.55
2018-08-20T16:11:12.265Z,60.54
2018-08-20T16:13:42.986Z,62.41
2018-08-20T16:16:13.408Z,62.13
2018-08-20T16:18:43.828Z,61.60
2018-08-20T16:21:16.529Z,62.91
2018-08-20T16:23:46.831Z,63.02
2018-08-20T16:26:17.398Z,62.84
2018-08-20T16:28:47.767Z,61.88
2018-08-20T16:31:18.359Z,61.18
2018-08-20T16:33:48.904Z,60.43
2018-08-20T16:36:19.468Z,60.81
2018-08-20T16:38:49.952Z,59.82
2018-08-20T16:41:20.294Z,59.64
2018-08-20T16:43:50.755Z,59.02
2018-08-20T16:46:22.124Z,58.37
2018-08-20T16:48:52.648Z,58.84
2018-08-20T16:51:23.073Z,58.22
2018-08-20T16:53:53.684Z,58.00
2018-08-20T16:56:24.335Z,57.39
2018-08-20T16:58:54.844Z,58.35
2018-08-20T17:01:25.363Z,58.68
2018-08-20T17:03:55.944Z,58.06
2018-08-20T17:06:35.836Z,57.86
2018-08-20T17:09:06.590Z,58.06
2018-08-20T17:11:37.023Z,58.02
2018-08-20T17:14:07.537Z,58.53
2018-08-20T17:16:37.853Z,57.89
2018-08-20T17:19:08.433Z,57.99
2018-08-20T17:21:39.036Z,58.56
2018-08-20T17:24:09.621Z,58.78
2018-08-20T17:26:40.264Z,58.78
2018-08-20T17:29:12.252Z,59.71
2018-08-20T17:31:42.610Z,59.18
2018-08-20T17:34:13.064Z,57.89
2018-08-20T17:36:43.541Z,58.30
2018-08-20T17:39:13.951Z,58.75
2018-08-20T17:41:44.665Z,59.38
2018-08-20T17:44:15.128Z,58.96
2018-08-20T17:46:45.721Z,57.89
2018-08-20T17:49:20.354Z,57.55
2018-08-20T17:51:51.380Z,58.39
2018-08-20T17:54:21.776Z,58.25
2018-08-20T17:56:52.266Z,57.40
2018-08-20T17:59:24.818Z,58.13
2018-08-20T18:01:55.394Z,58.91
2018-08-20T18:04:25.776Z,57.66
2018-08-20T18:06:57.161Z,58.37
2018-08-20T18:09:27.757Z,59.35
2018-08-20T18:11:58.218Z,58.56
2018-08-20T18:14:28.592Z,59.16
2018-08-20T18:16:58.992Z,59.18
2018-08-20T18:19:29.559Z,60.34
2018-08-20T18:22:00.000Z,59.05
2018-08-20T18:24:30.458Z,58.65
2018-08-20T18:27:01.003Z,59.95
2018-08-20T18:29:31.295Z,59.53
2018-08-20T18:32:03.480Z,60.08
2018-08-20T18:34:33.978Z,60.17
2018-08-20T18:37:05.159Z,60.36
2018-08-20T18:39:35.573Z,60.39
2018-08-20T18:42:15.218Z,61.38
2018-08-20T18:44:46.716Z,61.06
2018-08-20T18:47:18.655Z,61.24
2018-08-20T18:49:54.564Z,61.05
2018-08-20T18:52:26.756Z,61.62
2018-08-20T18:54:58.372Z,61.07
2018-08-20T18:57:36.744Z,61.84
2018-08-20T19:00:15.338Z,61.39
2018-08-20T19:02:51.300Z,61.07
2018-08-20T19:05:22.111Z,61.91
2018-08-20T19:07:52.719Z,61.46
2018-08-20T19:10:30.320Z,61.50
2018-08-20T19:13:00.772Z,61.95
2018-08-20T19:15:39.060Z,61.47
2018-08-20T19:18:13.336Z,61.35
2018-08-20T19:20:44.467Z,62.27
2018-08-20T19:23:14.849Z,62.40
2018-08-20T19:25:45.299Z,61.82
2018-08-20T19:28:20.880Z,61.76
2018-08-20T19:30:52.356Z,62.37
2018-08-20T19:33:25.123Z,61.86
2018-08-20T19:35:56.097Z,62.05
2018-08-20T19:38:26.644Z,61.93
2018-08-20T19:41:04.743Z,62.65
2018-08-20T19:43:40.808Z,62.93
2018-08-20T19:46:11.456Z,62.96
2018-08-20T19:48:44.228Z,62.87
2018-08-20T19:51:15.160Z,63.24
2018-08-20T19:53:46.760Z,62.90
2018-08-20T19:56:17.127Z,63.59
2018-08-20T19:58:47.605Z,63.24
2018-08-20T20:01:19.005Z,63.66
2018-08-20T20:03:50.558Z,63.39
2018-08-20T20:06:21.175Z,62.72
2018-08-20T20:08:51.636Z,63.75
2018-08-20T20:11:26.952Z,63.70
2018-08-20T20:14:00.645Z,64.06
2018-08-20T20:16:48.346Z,63.11
2018-08-20T20:19:19.347Z,63.46
2018-08-20T20:21:49.962Z,63.37
2018-08-20T20:24:20.526Z,63.34
2018-08-20T20:26:50.983Z,63.18
2018-08-20T20:29:21.541Z,64.37
2018-08-20T20:31:52.256Z,63.50
2018-08-20T20:34:22.539Z,63.99
2018-08-20T20:36:52.948Z,63.96
2018-08-20T20:39:23.556Z,63.46
2018-08-20T20:41:54.062Z,63.43
2018-08-20T20:44:24.580Z,63.10
2018-08-20T20:46:55.168Z,63.76
2018-08-20T20:49:25.732Z,63.08
2018-08-20T20:51:56.192Z,63.04
2018-08-20T20:54:26.602Z,64.14
2018-08-20T20:56:57.199Z,63.86
2018-08-20T20:59:27.692Z,63.39
2018-08-20T21:01:58.163Z,63.62
2018-08-20T21:04:28.856Z,64.01
2018-08-20T21:06:59.431Z,64.27
2018-08-20T21:09:33.928Z,63.90
2018-08-20T21:12:04.600Z,63.12
2018-08-20T21:14:35.180Z,63.27
2018-08-20T21:17:05.735Z,62.87
2018-08-20T21:19:36.657Z,62.72
2018-08-20T21:22:08.620Z,62.88
2018-08-20T21:24:40.509Z,63.51
2018-08-20T21:27:19.320Z,63.29
2018-08-20T21:29:49.994Z,63.59
2018-08-20T21:32:20.501Z,63.46
2018-08-20T21:34:50.748Z,63.34
2018-08-20T21:37:21.175Z,63.72
2018-08-20T21:39:52.013Z,63.17
2018-08-20T21:42:33.973Z,63.66
2018-08-20T21:45:04.640Z,62.20
2018-08-20T21:47:35.053Z,62.29
2018-08-20T21:50:06.056Z,62.97
2018-08-20T21:52:36.296Z,63.10
2018-08-20T21:55:08.148Z,63.03
2018-08-20T21:57:44.025Z,62.56
2018-08-20T22:00:17.132Z,63.02
2018-08-20T22:02:52.779Z,63.27
2018-08-20T22:05:23.192Z,62.86
2018-08-20T22:07:56.213Z,63.56
2018-08-20T22:10:28.577Z,62.96
2018-08-20T22:12:59.132Z,63.36
2018-08-20T22:15:29.503Z,63.39
2018-08-20T22:17:59.959Z,64.03
2018-08-20T22:20:30.522Z,63.09
2018-08-20T22:23:11.919Z,63.52
2018-08-20T22:25:31.804Z,64.76
2018-08-20T22:28:02.512Z,64.62
2018-08-20T22:30:35.940Z,64.29
2018-08-20T22:33:06.563Z,65.32
2018-08-20T22:35:37.068Z,64.28
2018-08-20T22:38:07.579Z,64.81
2018-08-20T22:40:37.952Z,65.25
2018-08-20T22:43:08.644Z,64.94
2018-08-20T22:45:39.857Z,64.97
2018-08-20T22:48:10.215Z,65.92
2018-08-20T22:50:40.672Z,65.92
2018-08-20T22:53:11.685Z,65.67
2018-08-20T22:56:00.536Z,65.39
2018-08-20T22:58:30.993Z,65.93
2018-08-20T23:01:01.448Z,65.52
2018-08-20T23:03:31.771Z,65.49
2018-08-20T23:06:02.168Z,66.36
2018-08-20T23:08:33.990Z,66.58
2018-08-20T23:11:05.013Z,66.18
2018-08-20T23:13:35.668Z,66.36
2018-08-20T23:16:06.261Z,65.61
2018-08-20T23:18:37.268Z,66.30
2018-08-20T23:21:07.858Z,65.82
2018-08-20T23:23:38.516Z,65.96
2018-08-20T23:26:10.413Z,66.37
2018-08-20T23:28:41.867Z,66.84
2018-08-20T23:31:12.721Z,67.29
2018-08-20T23:33:43.259Z,66.80
2018-08-20T23:36:13.740Z,66.53
2018-08-20T23:38:44.325Z,66.46
2018-08-20T23:41:14.647Z,66.60
2018-08-20T23:43:49.935Z,67.06
2018-08-20T23:46:41.608Z,66.69
2018-08-20T23:49:12.029Z,66.90
2018-08-20T23:51:42.620Z,66.33
2018-08-20T23:54:14.145Z,67.23
2018-08-20T23:56:44.628Z,67.30
2018-08-20T23:59:14.975Z,66.60
